Time;durP1;ratioP1;P1;durP2;ratioP2;P2;SDS_P1;SDS_P2;PMS_P1;PMS_P2;Temp;Humidity;BMP_temperature;BMP_pressure;BME280_temperature;BME280_humidity;BME280_pressure;Samples;Min_cycle;Max_cycle;Signal;HPM_P1;HPM_P2
2022/08/05 00:00:13;;;;;;;4.90;3.53;;;;;;;;;;5052713;28;20076;-66
2022/08/05 00:02:43;;;;;;;5.07;3.40;;;;;;;;;;5055891;28;20056;-66
2022/08/05 00:05:22;;;;;;;5.57;3.50;;;;;;;;;;5055812;28;20045;-66
2022/08/05 00:08:09;;;;;;;5.78;3.58;;;;;;;;;;5055747;28;20049;-66
2022/08/05 00:10:57;;;;;;;4.28;3.53;;;;;;;;;;5055286;28;20095;-65
2022/08/05 00:13:28;;;;;;;4.78;3.50;;;;;;;;;;5055498;28;20495;-67
2022/08/05 00:16:12;;;;;;;4.60;3.60;;;;;;;;;;5055425;28;20408;-67
2022/08/05 00:18:43;;;;;;;6.13;3.60;;;;;;;;;;5055569;28;20748;-67
2022/08/05 00:21:10;;;;;;;4.40;3.40;;;;;;;;;;5055794;28;20301;-65
2022/08/05 00:23:41;;;;;;;5.32;3.65;;;;;;;;;;5056061;28;20449;-67
2022/08/05 00:26:13;;;;;;;4.82;3.50;;;;;;;;;;5055654;28;20487;-67
2022/08/05 00:28:43;;;;;;;6.18;3.45;;;;;;;;;;5059229;28;20037;-65
2022/08/05 00:31:12;;;;;;;4.78;3.90;;;;;;;;;;5054743;28;20051;-67
2022/08/05 00:33:40;;;;;;;4.45;3.30;;;;;;;;;;5056162;28;20394;-67
2022/08/05 00:36:28;;;;;;;3.85;3.25;;;;;;;;;;5055196;28;20060;-65
2022/08/05 00:39:15;;;;;;;8.07;3.50;;;;;;;;;;5055946;28;20048;-65
2022/08/05 00:41:46;;;;;;;7.03;3.80;;;;;;;;;;5055764;28;20124;-65
2022/08/05 00:44:23;;;;;;;7.50;3.80;;;;;;;;;;5054413;28;20048;-65
2022/08/05 00:46:58;;;;;;;4.18;3.53;;;;;;;;;;5055221;28;20059;-66
2022/08/05 00:49:32;;;;;;;4.70;3.00;;;;;;;;;;5055141;28;20484;-66
2022/08/05 00:52:18;;;;;;;4.35;3.17;;;;;;;;;;5055524;28;20053;-65
2022/08/05 00:54:55;;;;;;;6.07;3.00;;;;;;;;;;5055183;28;20037;-65
2022/08/05 00:57:23;;;;;;;3.33;2.83;;;;;;;;;;5055104;28;20041;-65
2022/08/05 00:59:58;;;;;;;10.57;3.42;;;;;;;;;;5055008;28;20526;-65
2022/08/05 01:02:25;;;;;;;5.80;3.25;;;;;;;;;;5055012;28;20041;-65
2022/08/05 01:04:53;;;;;;;8.98;3.40;;;;;;;;;;5054843;28;20064;-65
2022/08/05 01:07:20;;;;;;;5.90;3.30;;;;;;;;;;5054717;28;20079;-65
2022/08/05 01:09:58;;;;;;;6.38;3.28;;;;;;;;;;5054742;28;20157;-65
2022/08/05 01:12:26;;;;;;;9.52;3.60;;;;;;;;;;5052078;28;20612;-65
2022/08/05 01:15:05;;;;;;;9.23;3.55;;;;;;;;;;5054574;28;20044;-65
2022/08/05 01:17:56;;;;;;;10.57;4.03;;;;;;;;;;5054764;28;20045;-65
2022/08/05 01:20:34;;;;;;;7.00;3.53;;;;;;;;;;5054643;28;20552;-66
2022/08/05 01:23:10;;;;;;;8.05;3.70;;;;;;;;;;5054507;28;20048;-65
2022/08/05 01:25:49;;;;;;;7.38;3.42;;;;;;;;;;5054685;28;20037;-66
2022/08/05 01:28:20;;;;;;;7.90;3.67;;;;;;;;;;5054492;28;20120;-65
2022/08/05 01:30:52;;;;;;;5.78;3.42;;;;;;;;;;5054249;28;20380;-65
2022/08/05 01:33:24;;;;;;;5.55;3.20;;;;;;;;;;5053006;28;20098;-66
2022/08/05 01:35:55;;;;;;;4.57;3.50;;;;;;;;;;5054069;28;20040;-65
2022/08/05 01:38:25;;;;;;;6.07;3.22;;;;;;;;;;5054018;28;20055;-65
2022/08/05 01:41:00;;;;;;;7.28;4.30;;;;;;;;;;5054084;28;20072;-65
2022/08/05 01:43:29;;;;;;;5.88;3.75;;;;;;;;;;5054149;28;20122;-65
2022/08/05 01:45:57;;;;;;;5.75;4.38;;;;;;;;;;5054240;28;20386;-65
2022/08/05 01:48:45;;;;;;;5.38;3.20;;;;;;;;;;5054118;28;20560;-65
2022/08/05 01:51:17;;;;;;;7.03;3.92;;;;;;;;;;5053886;28;20055;-65
2022/08/05 01:53:46;;;;;;;5.80;3.20;;;;;;;;;;5076554;28;20080;-65
2022/08/05 01:56:29;;;;;;;5.50;3.72;;;;;;;;;;5094270;28;20047;-65
2022/08/05 01:59:17;;;;;;;8.77;5.22;;;;;;;;;;5094121;28;20116;-65
2022/08/05 02:01:46;;;;;;;5.93;3.85;;;;;;;;;;5093747;28;20532;-65
2022/08/05 02:04:16;;;;;;;10.52;7.00;;;;;;;;;;5093915;28;20032;-65
2022/08/05 02:06:44;;;;;;;9.35;4.25;;;;;;;;;;5093768;28;20040;-65
2022/08/05 02:09:14;;;;;;;14.95;7.85;;;;;;;;;;5093697;28;20072;-65
2022/08/05 02:11:56;;;;;;;10.32;6.55;;;;;;;;;;5093657;28;20075;-65
2022/08/05 02:14:44;;;;;;;5.25;3.30;;;;;;;;;;5093577;28;20490;-65
2022/08/05 02:17:34;;;;;;;6.68;3.72;;;;;;;;;;5076023;28;20498;-65
2022/08/05 02:20:22;;;;;;;9.82;6.82;;;;;;;;;;5091706;28;20055;-65
2022/08/05 02:22:56;;;;;;;21.80;16.02;;;;;;;;;;5093134;28;20048;-65
2022/08/05 02:25:27;;;;;;;15.25;11.70;;;;;;;;;;5093499;28;20451;-65
2022/08/05 02:28:00;;;;;;;23.47;16.73;;;;;;;;;;5059496;28;20429;-65
2022/08/05 02:30:32;;;;;;;6.50;4.30;;;;;;;;;;5093557;28;20086;-65
2022/08/05 02:33:01;;;;;;;16.77;13.82;;;;;;;;;;5075690;28;20044;-65
2022/08/05 02:35:31;;;;;;;12.13;8.77;;;;;;;;;;5075655;28;20036;-65
2022/08/05 02:38:04;;;;;;;17.25;11.60;;;;;;;;;;5093447;28;20048;-66
2022/08/05 02:40:37;;;;;;;11.82;8.32;;;;;;;;;;5093320;28;20111;-65
2022/08/05 02:43:06;;;;;;;18.35;14.35;;;;;;;;;;5093383;28;20049;-66
2022/08/05 02:45:34;;;;;;;19.08;14.75;;;;;;;;;;5093399;28;20040;-66
2022/08/05 02:48:21;;;;;;;32.33;24.15;;;;;;;;;;5093187;28;20490;-66
2022/08/05 02:50:58;;;;;;;58.75;46.35;;;;;;;;;;5093393;28;20131;-66
2022/08/05 02:53:26;;;;;;;26.85;21.05;;;;;;;;;;5092996;28;20358;-66
2022/08/05 02:55:55;;;;;;;59.78;46.47;;;;;;;;;;5093044;28;20542;-66
2022/08/05 02:58:27;;;;;;;74.80;56.10;;;;;;;;;;5093073;28;20118;-66
2022/08/05 03:00:57;;;;;;;54.58;41.63;;;;;;;;;;5092880;28;20040;-66
2022/08/05 03:03:25;;;;;;;9.98;6.75;;;;;;;;;;5093450;28;20062;-65
2022/08/05 03:06:00;;;;;;;22.95;17.35;;;;;;;;;;5093272;28;20459;-66
2022/08/05 03:08:48;;;;;;;52.20;38.88;;;;;;;;;;5093134;28;20072;-66
2022/08/05 03:11:19;;;;;;;52.15;39.83;;;;;;;;;;5093103;28;20048;-66
2022/08/05 03:14:07;;;;;;;66.97;51.65;;;;;;;;;;5092951;28;20036;-66
2022/08/05 03:16:39;;;;;;;11.73;6.53;;;;;;;;;;5076227;28;20082;-66
2022/08/05 03:19:07;;;;;;;44.78;30.33;;;;;;;;;;5092817;28;20040;-66
2022/08/05 03:21:54;;;;;;;9.43;6.28;;;;;;;;;;5092666;28;20168;-67
2022/08/05 03:24:22;;;;;;;9.27;4.30;;;;;;;;;;5092626;28;20066;-66
2022/08/05 03:26:56;;;;;;;;;;;;;;;;;;5093160;28;20040;-66
2022/08/05 03:29:24;;;;;;;12.38;8.18;;;;;;;;;;5092839;28;19920;-66
2022/08/05 03:32:12;;;;;;;58.63;44.13;;;;;;;;;;5092767;28;20067;-66
2022/08/05 03:34:41;;;;;;;32.15;23.52;;;;;;;;;;5092916;28;20036;-66
2022/08/05 03:37:18;;;;;;;12.50;6.10;;;;;;;;;;5096903;28;20036;-66
2022/08/05 03:39:56;;;;;;;13.05;6.70;;;;;;;;;;5097396;28;20143;-66
2022/08/05 03:42:27;;;;;;;11.27;4.50;;;;;;;;;;5096835;28;20522;-66
2022/08/05 03:44:59;;;;;;;9.02;4.28;;;;;;;;;;5096423;28;20036;-66
2022/08/05 03:47:28;;;;;;;24.00;14.57;;;;;;;;;;5095917;28;20067;-66
2022/08/05 03:50:01;;;;;;;21.80;16.70;;;;;;;;;;5095771;28;20032;-66
2022/08/05 03:52:33;;;;;;;8.02;5.75;;;;;;;;;;5096278;28;20401;-65
2022/08/05 03:55:33;;;;;;;12.85;6.95;;;;;;;;;;5081391;28;20044;-66
2022/08/05 03:58:22;;;;;;;25.52;20.00;;;;;;;;;;5081137;28;20036;-65
2022/08/05 04:00:57;;;;;;;17.27;7.10;;;;;;;;;;5096063;28;20048;-65
2022/08/05 04:03:27;;;;;;;40.85;30.70;;;;;;;;;;5096239;28;20044;-66
2022/08/05 04:05:56;;;;;;;36.83;22.65;;;;;;;;;;5096070;28;20559;-66
2022/08/05 04:08:28;;;;;;;9.88;5.35;;;;;;;;;;5096294;28;20123;-66
2022/08/05 04:11:03;;;;;;;12.73;5.60;;;;;;;;;;5096187;28;20093;-67
2022/08/05 04:13:32;;;;;;;113.88;91.40;;;;;;;;;;5095962;28;20043;-66
2022/08/05 04:16:17;;;;;;;42.40;30.33;;;;;;;;;;5096120;28;20551;-65
2022/08/05 04:18:58;;;;;;;28.05;22.20;;;;;;;;;;5096027;28;20386;-65
2022/08/05 04:21:26;;;;;;;16.65;11.25;;;;;;;;;;5095936;28;20040;-65
2022/08/05 04:24:14;;;;;;;7.47;5.72;;;;;;;;;;5095983;28;20048;-65
2022/08/05 04:26:46;;;;;;;10.38;6.30;;;;;;;;;;5096040;28;20098;-66
2022/08/05 04:29:13;;;;;;;12.48;5.07;;;;;;;;;;5095869;28;20036;-67
2022/08/05 04:31:41;;;;;;;11.07;5.50;;;;;;;;;;5077516;28;20036;-66
2022/08/05 04:34:09;;;;;;;13.80;9.95;;;;;;;;;;5095520;28;20044;-66
2022/08/05 04:36:57;;;;;;;20.10;15.05;;;;;;;;;;5095430;28;20070;-66
2022/08/05 04:39:24;;;;;;;27.15;17.33;;;;;;;;;;5095592;28;20040;-66
2022/08/05 04:41:54;;;;;;;7.13;4.55;;;;;;;;;;5095511;28;20486;-66
2022/08/05 04:44:22;;;;;;;7.07;5.13;;;;;;;;;;5095432;28;20047;-66
2022/08/05 04:47:00;;;;;;;8.43;6.15;;;;;;;;;;5095175;28;20497;-66
2022/08/05 04:49:36;;;;;;;9.00;4.85;;;;;;;;;;5095483;28;20040;-66
2022/08/05 04:52:06;;;;;;;10.82;4.30;;;;;;;;;;5095208;28;20047;-66
2022/08/05 04:54:34;;;;;;;21.58;15.85;;;;;;;;;;5095256;28;20101;-67
2022/08/05 04:57:01;;;;;;;12.15;9.63;;;;;;;;;;5095285;28;20040;-67
2022/08/05 04:59:29;;;;;;;36.50;28.85;;;;;;;;;;5063678;28;20044;-67
2022/08/05 05:02:06;;;;;;;8.80;5.13;;;;;;;;;;5092609;28;20043;-67
2022/08/05 05:04:53;;;;;;;26.35;17.45;;;;;;;;;;5074801;28;20037;-67
2022/08/05 05:07:29;;;;;;;11.45;5.03;;;;;;;;;;5094432;28;20097;-67
2022/08/05 05:10:03;;;;;;;19.67;12.80;;;;;;;;;;5094805;28;20079;-66
2022/08/05 05:12:30;;;;;;;11.98;5.15;;;;;;;;;;5078288;28;20051;-66
2022/08/05 05:14:58;;;;;;;11.02;5.32;;;;;;;;;;5095252;28;20036;-66
2022/08/05 05:17:36;;;;;;;26.85;20.90;;;;;;;;;;5095241;28;20496;-67
2022/08/05 05:20:29;;;;;;;27.73;20.75;;;;;;;;;;5095308;28;20127;-66
2022/08/05 05:22:57;;;;;;;38.67;30.48;;;;;;;;;;5095361;28;20090;-66
2022/08/05 05:25:25;;;;;;;15.90;9.20;;;;;;;;;;5095770;28;20119;-66
2022/08/05 05:28:07;;;;;;;10.93;7.70;;;;;;;;;;5095005;28;20104;-66
2022/08/05 05:30:35;;;;;;;9.02;4.85;;;;;;;;;;5095045;28;20032;-66
2022/08/05 05:33:04;;;;;;;13.63;5.85;;;;;;;;;;5077004;28;20056;-66
2022/08/05 05:35:44;;;;;;;11.18;4.70;;;;;;;;;;5095283;28;20120;-66
2022/08/05 05:38:12;;;;;;;9.18;3.95;;;;;;;;;;5094456;28;20080;-66
2022/08/05 05:40:41;;;;;;;9.60;4.60;;;;;;;;;;5077020;28;20587;-66
2022/08/05 05:43:17;;;;;;;6.05;4.00;;;;;;;;;;5078144;28;20482;-66
2022/08/05 05:46:05;;;;;;;7.85;5.43;;;;;;;;;;5094453;28;20126;-66
2022/08/05 05:48:40;;;;;;;6.85;4.10;;;;;;;;;;5094581;28;20138;-66
2022/08/05 05:51:10;;;;;;;7.85;4.70;;;;;;;;;;5094419;28;20047;-66
2022/08/05 05:53:42;;;;;;;10.27;4.80;;;;;;;;;;5094335;28;20052;-66
2022/08/05 05:56:29;;;;;;;6.50;4.30;;;;;;;;;;5094906;28;20050;-67
2022/08/05 05:59:02;;;;;;;7.25;3.72;;;;;;;;;;5092949;28;20071;-67
2022/08/05 06:01:36;;;;;;;6.78;4.18;;;;;;;;;;5094912;28;20080;-67
2022/08/05 06:04:10;;;;;;;5.90;3.80;;;;;;;;;;5094043;28;20052;-67
2022/08/05 06:06:43;;;;;;;5.50;3.50;;;;;;;;;;5094695;28;20120;-66
2022/08/05 06:09:15;;;;;;;4.82;3.83;;;;;;;;;;5094230;28;20055;-66
2022/08/05 06:12:03;;;;;;;6.30;4.50;;;;;;;;;;5078923;28;20032;-66
2022/08/05 06:14:32;;;;;;;7.32;3.80;;;;;;;;;;5094034;28;20054;-66
2022/08/05 06:17:01;;;;;;;9.35;4.00;;;;;;;;;;5094436;28;20047;-66
2022/08/05 06:19:50;;;;;;;5.15;3.65;;;;;;;;;;5094047;28;20071;-66
2022/08/05 06:22:29;;;;;;;9.80;4.00;;;;;;;;;;5093768;28;20485;-66
2022/08/05 06:25:01;;;;;;;7.75;4.15;;;;;;;;;;5093993;28;20064;-65
2022/08/05 06:27:49;;;;;;;7.38;4.80;;;;;;;;;;5079178;28;20044;-66
2022/08/05 06:30:36;;;;;;;4.68;4.07;;;;;;;;;;5093370;28;20040;-66
2022/08/05 06:33:04;;;;;;;6.72;4.18;;;;;;;;;;5093772;28;20040;-66
2022/08/05 06:35:36;;;;;;;7.63;3.78;;;;;;;;;;5075729;28;20071;-66
2022/08/05 06:38:24;;;;;;;5.57;3.80;;;;;;;;;;5093532;28;20580;-66
2022/08/05 06:41:03;;;;;;;7.60;4.28;;;;;;;;;;5093744;28;20489;-66
2022/08/05 06:43:31;;;;;;;6.72;3.75;;;;;;;;;;5094184;28;20072;-66
2022/08/05 06:46:19;;;;;;;5.18;3.47;;;;;;;;;;5093488;28;20089;-65
2022/08/05 06:48:46;;;;;;;5.68;5.13;;;;;;;;;;5093594;28;20051;-66
2022/08/05 06:51:25;;;;;;;6.90;4.40;;;;;;;;;;5075318;28;20085;-66
2022/08/05 06:53:57;;;;;;;5.25;3.90;;;;;;;;;;5092103;28;20508;-66
2022/08/05 06:56:25;;;;;;;5.57;3.90;;;;;;;;;;5071801;28;20040;-65
2022/08/05 06:58:53;;;;;;;4.63;3.70;;;;;;;;;;5093489;28;20043;-67
2022/08/05 07:01:21;;;;;;;6.72;3.78;;;;;;;;;;5093312;28;20481;-65
2022/08/05 07:03:49;;;;;;;4.70;3.50;;;;;;;;;;5092950;28;20130;-66
2022/08/05 07:06:16;;;;;;;4.75;3.92;;;;;;;;;;5093092;28;20051;-65
2022/08/05 07:08:47;;;;;;;6.43;4.50;;;;;;;;;;5093357;28;20044;-65
2022/08/05 07:11:18;;;;;;;7.65;5.80;;;;;;;;;;5092972;28;20051;-65
2022/08/05 07:16:59;;;;;;;6.68;4.55;;;;;;;;;;5093679;28;20062;-65
2022/08/05 07:19:47;;;;;;;5.63;3.60;;;;;;;;;;5093303;28;20072;-65
2022/08/05 07:22:35;;;;;;;9.23;3.78;;;;;;;;;;5092653;28;20123;-65
2022/08/05 07:25:04;;;;;;;5.55;3.38;;;;;;;;;;5092036;28;20538;-65
2022/08/05 07:27:53;;;;;;;5.57;3.75;;;;;;;;;;5092081;28;20058;-65
2022/08/05 07:30:32;;;;;;;5.13;4.28;;;;;;;;;;5092391;28;20048;-65
2022/08/05 07:33:06;;;;;;;4.43;3.25;;;;;;;;;;5093021;28;20401;-66
2022/08/05 07:35:36;;;;;;;9.48;4.25;;;;;;;;;;5075197;28;20085;-65
2022/08/05 07:38:24;;;;;;;5.40;3.95;;;;;;;;;;5092750;28;20044;-66
2022/08/05 07:41:01;;;;;;;7.03;4.20;;;;;;;;;;5092630;28;20044;-67
2022/08/05 07:43:49;;;;;;;4.65;3.50;;;;;;;;;;5073915;28;20047;-66
2022/08/05 07:46:16;;;;;;;4.35;3.00;;;;;;;;;;5092139;28;20032;-65
2022/08/05 07:48:51;;;;;;;4.90;4.13;;;;;;;;;;5091923;28;20048;-65
2022/08/05 07:51:37;;;;;;;6.45;3.88;;;;;;;;;;5092299;28;20111;-65
2022/08/05 07:54:15;;;;;;;6.28;3.55;;;;;;;;;;5091924;28;20134;-66
2022/08/05 07:56:45;;;;;;;3.20;2.90;;;;;;;;;;5092218;28;20044;-66
2022/08/05 07:59:32;;;;;;;4.70;2.80;;;;;;;;;;5092560;28;20036;-66
2022/08/05 08:02:07;;;;;;;7.40;3.38;;;;;;;;;;5092089;28;20444;-65
2022/08/05 08:04:44;;;;;;;6.43;3.50;;;;;;;;;;5092134;28;20044;-66
2022/08/05 08:07:12;;;;;;;6.65;3.95;;;;;;;;;;5092027;28;20720;-66
2022/08/05 08:09:40;;;;;;;3.90;3.50;;;;;;;;;;5092126;28;20093;-66
2022/08/05 08:12:08;;;;;;;10.23;4.57;;;;;;;;;;5091857;28;20047;-66
2022/08/05 08:14:55;;;;;;;6.50;3.58;;;;;;;;;;5060318;28;20036;-66
2022/08/05 08:17:28;;;;;;;5.38;3.35;;;;;;;;;;5092124;28;20044;-65
2022/08/05 08:19:56;;;;;;;5.50;4.18;;;;;;;;;;5092116;28;20036;-66
2022/08/05 08:22:49;;;;;;;6.03;3.42;;;;;;;;;;5094892;28;20040;-66
2022/08/05 08:25:19;;;;;;;7.05;3.83;;;;;;;;;;5095752;28;20055;-65
2022/08/05 08:28:07;;;;;;;4.22;2.95;;;;;;;;;;5095645;28;20040;-65
2022/08/05 08:30:45;;;;;;;6.43;3.30;;;;;;;;;;5079268;28;20098;-66
2022/08/05 08:33:17;;;;;;;5.18;2.90;;;;;;;;;;5095613;28;20044;-66
2022/08/05 08:35:46;;;;;;;5.63;4.25;;;;;;;;;;5061797;28;20048;-66
2022/08/05 08:38:37;;;;;;;38.42;34.47;;;;;;;;;;5095474;28;20115;-66
2022/08/05 08:41:07;;;;;;;34.78;7.65;;;;;;;;;;5095020;28;20067;-66
2022/08/05 08:43:36;;;;;;;5.38;3.30;;;;;;;;;;5094914;28;20051;-66
2022/08/05 08:46:27;;;;;;;7.15;6.40;;;;;;;;;;5095087;28;20040;-67
2022/08/05 08:48:55;;;;;;;4.55;3.40;;;;;;;;;;5095156;28;20458;-67
2022/08/05 08:51:46;;;;;;;7.25;3.33;;;;;;;;;;5095221;28;20482;-67
2022/08/05 08:54:32;;;;;;;6.18;4.40;;;;;;;;;;5094968;28;20048;-66
2022/08/05 08:57:04;;;;;;;4.20;3.20;;;;;;;;;;5094966;28;20040;-66
2022/08/05 08:59:38;;;;;;;6.50;3.20;;;;;;;;;;5095059;28;20528;-66
2022/08/05 09:02:13;;;;;;;5.88;3.38;;;;;;;;;;5095296;28;20047;-66
2022/08/05 09:04:47;;;;;;;6.50;3.50;;;;;;;;;;5095293;28;20389;-67
2022/08/05 09:07:35;;;;;;;5.72;3.17;;;;;;;;;;5095025;28;20040;-66
2022/08/05 09:10:22;;;;;;;3.40;3.10;;;;;;;;;;5094853;28;20119;-66
2022/08/05 09:12:56;;;;;;;3.75;3.30;;;;;;;;;;5094648;28;20044;-66
2022/08/05 09:15:31;;;;;;;7.50;4.82;;;;;;;;;;5094779;28;20048;-66
2022/08/05 09:18:06;;;;;;;6.05;3.53;;;;;;;;;;5094696;28;20040;-65
2022/08/05 09:20:36;;;;;;;4.00;3.25;;;;;;;;;;5094768;28;20040;-66
2022/08/05 09:23:11;;;;;;;4.13;2.92;;;;;;;;;;5094079;28;20508;-68
2022/08/05 09:25:46;;;;;;;4.50;3.25;;;;;;;;;;5074169;28;20045;-66
2022/08/05 09:28:29;;;;;;;;;;;;;;;;;;5074676;28;20032;-67
2022/08/05 09:31:06;;;;;;;3.28;2.92;;;;;;;;;;5090423;28;20010;-67
2022/08/05 09:33:55;;;;;;;3.65;3.00;;;;;;;;;;5092261;28;20044;-66
2022/08/05 09:36:23;;;;;;;4.63;3.13;;;;;;;;;;5094253;28;20052;-65
2022/08/05 09:39:09;;;;;;;4.55;2.92;;;;;;;;;;5094484;28;20036;-66
2022/08/05 09:42:02;;;;;;;4.65;2.70;;;;;;;;;;5077553;28;20044;-66
2022/08/05 09:44:55;;;;;;;5.05;3.47;;;;;;;;;;5094272;28;20047;-66
2022/08/05 09:47:43;;;;;;;4.18;3.78;;;;;;;;;;5094210;28;20040;-65
2022/08/05 09:50:33;;;;;;;8.27;3.35;;;;;;;;;;5094205;28;20044;-65
2022/08/05 09:53:11;;;;;;;11.65;7.72;;;;;;;;;;5093961;28;20055;-66
2022/08/05 09:55:55;;;;;;;5.53;3.30;;;;;;;;;;5093943;28;20440;-65
2022/08/05 09:59:16;;;;;;;5.38;3.38;;;;;;;;;;5094089;28;20080;-65
2022/08/05 10:01:22;;;;;;;3.63;3.05;;;;;;;;;;5083665;28;20140;-65
2022/08/05 10:04:03;;;;;;;4.32;3.58;;;;;;;;;;5077386;28;20101;-65
2022/08/05 10:06:39;;;;;;;16.58;13.43;;;;;;;;;;5093837;28;20040;-66
2022/08/05 10:09:11;;;;;;;8.38;4.15;;;;;;;;;;5093736;28;20093;-66
2022/08/05 10:11:55;;;;;;;4.60;2.60;;;;;;;;;;5093794;28;20032;-66
2022/08/05 10:14:28;;;;;;;4.40;2.78;;;;;;;;;;5076318;28;20115;-66
2022/08/05 10:17:11;;;;;;;8.52;3.28;;;;;;;;;;5093572;28;20383;-66
2022/08/05 10:19:59;;;;;;;4.47;2.75;;;;;;;;;;5093535;28;20489;-66
2022/08/05 10:22:36;;;;;;;4.50;2.75;;;;;;;;;;5093552;28;20044;-66
2022/08/05 10:25:17;;;;;;;5.72;2.97;;;;;;;;;;5093636;28;20047;-66
2022/08/05 10:27:46;;;;;;;8.60;6.07;;;;;;;;;;5093474;28;20051;-67
2022/08/05 10:30:35;;;;;;;5.68;3.30;;;;;;;;;;5078538;28;20051;-66
2022/08/05 10:33:24;;;;;;;5.97;3.58;;;;;;;;;;5078616;28;20119;-66
2022/08/05 10:35:56;;;;;;;5.13;2.83;;;;;;;;;;5075826;28;20043;-66
2022/08/05 10:38:28;;;;;;;7.15;2.97;;;;;;;;;;5093196;28;20044;-66
2022/08/05 10:41:02;;;;;;;5.15;4.20;;;;;;;;;;5093105;28;20066;-66
2022/08/05 10:43:33;;;;;;;4.15;3.05;;;;;;;;;;5093095;28;20040;-66
2022/08/05 10:46:04;;;;;;;4.35;3.40;;;;;;;;;;5092930;28;20573;-66
2022/08/05 10:48:40;;;;;;;3.72;2.60;;;;;;;;;;5093018;28;20081;-66
2022/08/05 10:51:25;;;;;;;4.30;3.40;;;;;;;;;;5093096;28;20043;-66
2022/08/05 10:53:57;;;;;;;5.15;2.90;;;;;;;;;;5092725;28;20180;-66
2022/08/05 10:56:28;;;;;;;12.35;3.00;;;;;;;;;;5092937;28;20501;-67
2022/08/05 10:58:58;;;;;;;3.05;2.60;;;;;;;;;;5092921;28;20043;-66
2022/08/05 11:01:41;;;;;;;4.28;2.78;;;;;;;;;;5074719;28;20047;-66
2022/08/05 11:04:29;;;;;;;5.63;3.00;;;;;;;;;;5092924;28;20040;-66
2022/08/05 11:07:03;;;;;;;3.65;3.25;;;;;;;;;;5092894;28;20512;-66
2022/08/05 11:09:39;;;;;;;4.75;3.08;;;;;;;;;;5092905;28;20052;-67
2022/08/05 11:12:32;;;;;;;5.53;3.85;;;;;;;;;;5092584;28;20048;-66
2022/08/05 11:15:08;;;;;;;4.10;2.97;;;;;;;;;;5092692;28;20040;-67
2022/08/05 11:17:54;;;;;;;4.45;2.70;;;;;;;;;;5092601;28;20066;-67
2022/08/05 11:20:36;;;;;;;5.20;3.40;;;;;;;;;;5092477;28;20478;-67
2022/08/05 11:23:26;;;;;;;4.38;3.00;;;;;;;;;;5092508;28;20552;-67
2022/08/05 11:26:23;;;;;;;5.38;4.32;;;;;;;;;;5092561;28;20038;-67
2022/08/05 11:28:55;;;;;;;6.00;2.67;;;;;;;;;;5087138;28;20067;-66
2022/08/05 11:31:32;;;;;;;5.70;3.40;;;;;;;;;;5074386;28;20413;-67
2022/08/05 11:34:35;;;;;;;5.43;2.60;;;;;;;;;;5060608;28;20406;-66
2022/08/05 11:37:03;;;;;;;2.60;2.40;;;;;;;;;;5092421;28;20036;-66
2022/08/05 11:39:51;;;;;;;3.75;2.60;;;;;;;;;;5092570;28;20497;-65
2022/08/05 11:42:31;;;;;;;5.20;2.95;;;;;;;;;;5092536;28;20072;-66
2022/08/05 11:45:05;;;;;;;5.10;3.33;;;;;;;;;;5075373;28;20478;-66
2022/08/05 11:47:53;;;;;;;5.10;3.70;;;;;;;;;;5092477;28;20036;-67
2022/08/05 11:50:21;;;;;;;6.68;4.57;;;;;;;;;;5092499;28;20070;-67
2022/08/05 11:52:51;;;;;;;6.82;3.35;;;;;;;;;;5057876;28;20550;-67
2022/08/05 11:55:24;;;;;;;4.20;3.53;;;;;;;;;;5092438;28;20040;-66
2022/08/05 11:58:03;;;;;;;5.40;2.70;;;;;;;;;;5095862;28;20036;-66
2022/08/05 12:00:39;;;;;;;6.22;3.50;;;;;;;;;;5096288;28;20130;-66
2022/08/05 12:03:20;;;;;;;4.03;2.50;;;;;;;;;;5096098;28;20501;-66
2022/08/05 12:06:00;;;;;;;5.68;2.80;;;;;;;;;;5096564;28;20047;-66
2022/08/05 12:08:28;;;;;;;6.60;3.67;;;;;;;;;;5096028;28;20040;-66
2022/08/05 12:11:00;;;;;;;5.40;2.90;;;;;;;;;;5095674;28;20387;-66
2022/08/05 12:13:33;;;;;;;3.65;2.70;;;;;;;;;;5095705;28;20097;-66
2022/08/05 12:16:18;;;;;;;4.47;2.35;;;;;;;;;;5095741;28;20044;-66
2022/08/05 12:18:46;;;;;;;8.30;4.15;;;;;;;;;;5095944;28;20063;-66
2022/08/05 12:21:42;;;;;;;2.95;2.63;;;;;;;;;;5095890;28;20048;-66
2022/08/05 12:24:17;;;;;;;3.67;2.58;;;;;;;;;;5088954;28;20402;-67
2022/08/05 12:26:46;;;;;;;7.38;4.03;;;;;;;;;;5095825;28;20036;-67
2022/08/05 12:29:13;;;;;;;4.85;3.33;;;;;;;;;;5095915;28;20040;-66
2022/08/05 12:31:50;;;;;;;2.67;2.47;;;;;;;;;;5078026;28;20407;-66
2022/08/05 12:34:27;;;;;;;4.40;2.28;;;;;;;;;;5095656;28;20113;-66
2022/08/05 12:36:56;;;;;;;5.38;3.00;;;;;;;;;;5095597;28;20040;-66
2022/08/05 12:39:24;;;;;;;3.35;2.53;;;;;;;;;;5095594;28;20051;-66
2022/08/05 12:42:07;;;;;;;4.90;2.60;;;;;;;;;;5095516;28;20040;-66
2022/08/05 12:44:41;;;;;;;3.88;2.50;;;;;;;;;;5095401;28;20044;-66
2022/08/05 12:47:10;;;;;;;5.70;2.60;;;;;;;;;;5077713;28;20063;-66
2022/08/05 12:49:40;;;;;;;5.10;3.38;;;;;;;;;;5095429;28;20040;-66
2022/08/05 12:52:28;;;;;;;5.53;4.10;;;;;;;;;;5095347;28;20055;-67
2022/08/05 12:55:16;;;;;;;5.07;4.28;;;;;;;;;;5095327;28;20044;-66
2022/08/05 12:57:49;;;;;;;3.72;2.80;;;;;;;;;;5095272;28;20040;-66
2022/08/05 13:00:41;;;;;;;7.82;3.45;;;;;;;;;;5094953;28;20036;-66
2022/08/05 13:03:29;;;;;;;5.25;2.75;;;;;;;;;;5094918;28;20465;-66
2022/08/05 13:05:59;;;;;;;4.68;2.63;;;;;;;;;;5095189;28;20537;-66
2022/08/05 13:08:30;;;;;;;4.07;2.78;;;;;;;;;;5094794;28;20433;-66
2022/08/05 13:11:03;;;;;;;5.82;3.50;;;;;;;;;;5094847;28;20047;-66
2022/08/05 13:13:31;;;;;;;5.15;3.10;;;;;;;;;;5094571;28;20433;-66
2022/08/05 13:16:21;;;;;;;2.90;2.55;;;;;;;;;;5067154;28;20516;-66
2022/08/05 13:18:55;;;;;;;5.20;3.40;;;;;;;;;;5094780;28;20054;-67
2022/08/05 13:21:25;;;;;;;4.13;2.67;;;;;;;;;;5094687;28;20040;-67
2022/08/05 13:23:54;;;;;;;4.70;2.80;;;;;;;;;;5094250;28;20040;-67
2022/08/05 13:26:21;;;;;;;4.25;2.50;;;;;;;;;;5075731;28;20054;-65
2022/08/05 13:28:56;;;;;;;6.20;3.17;;;;;;;;;;5077635;28;20094;-65
2022/08/05 13:31:26;;;;;;;7.57;5.00;;;;;;;;;;5093447;28;20489;-65
2022/08/05 13:34:13;;;;;;;4.25;3.55;;;;;;;;;;5073677;28;20749;-65
2022/08/05 13:36:52;;;;;;;5.00;4.20;;;;;;;;;;5073961;28;20116;-66
2022/08/05 13:39:19;;;;;;;6.40;2.78;;;;;;;;;;5056312;28;20107;-66
2022/08/05 13:42:07;;;;;;;6.13;2.75;;;;;;;;;;5074271;28;20106;-65
2022/08/05 13:44:44;;;;;;;9.57;6.85;;;;;;;;;;5073981;28;20040;-65
2022/08/05 13:47:16;;;;;;;4.53;3.05;;;;;;;;;;5073947;28;20437;-65
2022/08/05 13:50:02;;;;;;;4.65;2.55;;;;;;;;;;5073879;28;20508;-66
2022/08/05 13:52:32;;;;;;;4.57;2.72;;;;;;;;;;5073646;28;20478;-65
2022/08/05 13:55:02;;;;;;;2.75;2.42;;;;;;;;;;5088331;28;20079;-66
2022/08/05 13:57:35;;;;;;;;;;;;;;;;;;5094218;28;20036;-66
2022/08/05 14:00:18;;;;;;;5.78;3.67;;;;;;;;;;5093856;28;19920;-66
2022/08/05 14:02:53;;;;;;;5.03;3.38;;;;;;;;;;5075837;28;20138;-67
2022/08/05 14:05:21;;;;;;;9.95;3.30;;;;;;;;;;5075428;28;20050;-66
2022/08/05 14:08:09;;;;;;;3.40;3.08;;;;;;;;;;5093795;28;20113;-67
2022/08/05 14:10:47;;;;;;;6.82;3.05;;;;;;;;;;5093729;28;20051;-67
2022/08/05 14:13:15;;;;;;;2.95;2.55;;;;;;;;;;5093627;28;20043;-66
2022/08/05 14:15:43;;;;;;;4.90;2.90;;;;;;;;;;5093526;28;20505;-66
2022/08/05 14:18:30;;;;;;;4.28;3.20;;;;;;;;;;5093266;28;20119;-66
2022/08/05 14:20:58;;;;;;;3.20;2.80;;;;;;;;;;5093029;28;20497;-66
2022/08/05 14:23:45;;;;;;;5.05;2.83;;;;;;;;;;5090597;28;20028;-67
2022/08/05 14:26:15;;;;;;;4.22;3.38;;;;;;;;;;5087637;28;20044;-67
2022/08/05 14:29:03;;;;;;;4.25;3.38;;;;;;;;;;5078249;28;20058;-67
2022/08/05 14:31:30;;;;;;;4.30;2.80;;;;;;;;;;5089798;28;20483;-67
2022/08/05 14:34:18;;;;;;;3.67;3.08;;;;;;;;;;5074687;28;20063;-67
2022/08/05 14:36:50;;;;;;;7.65;6.13;;;;;;;;;;5093228;28;20043;-67
2022/08/05 14:39:18;;;;;;;6.38;4.80;;;;;;;;;;5093163;28;20028;-66
2022/08/05 14:41:50;;;;;;;6.03;5.25;;;;;;;;;;5093047;28;20490;-67
2022/08/05 14:44:37;;;;;;;6.25;4.10;;;;;;;;;;5092993;28;20098;-66
2022/08/05 14:47:05;;;;;;;8.10;3.53;;;;;;;;;;5075283;28;20040;-67
2022/08/05 14:49:35;;;;;;;4.72;2.97;;;;;;;;;;5092785;28;20071;-66
2022/08/05 14:52:22;;;;;;;6.47;3.05;;;;;;;;;;5092834;28;20119;-66
2022/08/05 14:55:10;;;;;;;5.72;3.13;;;;;;;;;;5082980;28;20440;-67
2022/08/05 14:57:41;;;;;;;6.22;2.80;;;;;;;;;;5058703;28;20111;-67
2022/08/05 15:00:23;;;;;;;3.25;2.60;;;;;;;;;;5074745;28;20036;-67
2022/08/05 15:02:54;;;;;;;4.00;2.85;;;;;;;;;;5079395;28;20078;-67
2022/08/05 15:05:22;;;;;;;3.75;2.50;;;;;;;;;;5092760;28;20044;-67
2022/08/05 15:08:10;;;;;;;6.22;2.80;;;;;;;;;;5092733;28;20028;-66
2022/08/05 15:10:57;;;;;;;4.47;2.78;;;;;;;;;;5092657;28;20105;-66
2022/08/05 15:13:25;;;;;;;5.20;2.83;;;;;;;;;;5092856;28;20494;-66
2022/08/05 15:16:15;;;;;;;3.22;2.70;;;;;;;;;;5074134;28;20502;-66
2022/08/05 15:18:43;;;;;;;4.00;2.90;;;;;;;;;;5092321;28;20047;-67
2022/08/05 15:21:13;;;;;;;4.30;2.70;;;;;;;;;;5092278;28;20054;-66
2022/08/05 15:23:47;;;;;;;4.47;2.70;;;;;;;;;;5092542;28;20525;-67
2022/08/05 15:26:16;;;;;;;7.53;3.00;;;;;;;;;;5091465;28;20040;-67
2022/08/05 15:28:58;;;;;;;5.53;3.33;;;;;;;;;;5091113;28;20044;-65
2022/08/05 15:31:28;;;;;;;5.70;3.53;;;;;;;;;;5058667;28;20054;-68
2022/08/05 15:34:01;;;;;;;4.40;3.40;;;;;;;;;;5094929;28;20032;-67
2022/08/05 15:36:45;;;;;;;6.18;3.60;;;;;;;;;;5074580;28;20489;-67